sensor_id;sensor_type;location;lat;lon;timestamp;pressure;altitude;pressure_sealevel;temperature;humidity
46379;BME280;32084;42.254;22.744;2023-12-20T00:00:29;95663.69;;;-1.04;100.00
46379;BME280;32084;42.254;22.744;2023-12-20T00:02:55;95658.50;;;-1.06;100.00
46379;BME280;32084;42.254;22.744;2023-12-20T00:05:21;95661.66;;;-1.16;100.00
46379;BME280;32084;42.254;22.744;2023-12-20T00:07:47;95658.19;;;-1.17;100.00
46379;BME280;32084;42.254;22.744;2023-12-20T00:10:13;95657.75;;;-1.08;100.00
46379;BME280;32084;42.254;22.744;2023-12-20T00:12:39;95650.31;;;-1.00;100.00
46379;BME280;32084;42.254;22.744;2023-12-20T00:15:06;95643.66;;;-1.07;100.00
46379;BME280;32084;42.254;22.744;2023-12-20T00:17:32;95644.06;;;-1.14;100.00
46379;BME280;32084;42.254;22.744;2023-12-20T00:19:58;95643.16;;;-1.13;100.00
46379;BME280;32084;42.254;22.744;2023-12-20T00:22:24;95636.88;;;-1.11;100.00
46379;BME280;32084;42.254;22.744;2023-12-20T00:24:50;95641.91;;;-1.06;100.00
46379;BME280;32084;42.254;22.744;2023-12-20T00:27:16;95634.34;;;-1.12;100.00
46379;BME280;32084;42.254;22.744;2023-12-20T00:29:42;95641.44;;;-1.14;100.00
46379;BME280;32084;42.254;22.744;2023-12-20T00:32:13;95634.63;;;-1.01;100.00
46379;BME280;32084;42.254;22.744;2023-12-20T00:34:39;95631.59;;;-0.93;100.00
46379;BME280;32084;42.254;22.744;2023-12-20T00:37:05;95625.53;;;-0.94;100.00
46379;BME280;32084;42.254;22.744;2023-12-20T00:39:31;95627.59;;;-1.01;100.00
46379;BME280;32084;42.254;22.744;2023-12-20T00:41:58;95628.88;;;-1.08;100.00
46379;BME280;32084;42.254;22.744;2023-12-20T00:44:24;95619.72;;;-1.01;100.00
46379;BME280;32084;42.254;22.744;2023-12-20T00:46:50;95617.25;;;-0.86;100.00
46379;BME280;32084;42.254;22.744;2023-12-20T00:49:17;95613.59;;;-0.84;100.00
46379;BME280;32084;42.254;22.744;2023-12-20T00:51:43;95615.88;;;-1.11;100.00
46379;BME280;32084;42.254;22.744;2023-12-20T00:54:09;95611.34;;;-1.07;100.00
46379;BME280;32084;42.254;22.744;2023-12-20T00:56:35;95612.53;;;-0.97;100.00
46379;BME280;32084;42.254;22.744;2023-12-20T00:59:01;95614.75;;;-0.89;100.00
46379;BME280;32084;42.254;22.744;2023-12-20T01:01:27;95612.53;;;-0.97;100.00
46379;BME280;32084;42.254;22.744;2023-12-20T01:04:12;95608.59;;;-0.88;100.00
46379;BME280;32084;42.254;22.744;2023-12-20T01:06:38;95602.09;;;-0.81;100.00
46379;BME280;32084;42.254;22.744;2023-12-20T01:09:04;95591.69;;;-0.67;100.00
46379;BME280;32084;42.254;22.744;2023-12-20T01:11:30;95595.69;;;-0.60;100.00
46379;BME280;32084;42.254;22.744;2023-12-20T01:13:56;95596.53;;;-0.75;100.00
46379;BME280;32084;42.254;22.744;2023-12-20T01:16:22;95596.94;;;-0.67;100.00
46379;BME280;32084;42.254;22.744;2023-12-20T01:18:48;95596.19;;;-0.69;100.00
46379;BME280;32084;42.254;22.744;2023-12-20T01:21:15;95585.69;;;-0.69;100.00
46379;BME280;32084;42.254;22.744;2023-12-20T01:23:41;95578.13;;;-0.75;100.00
46379;BME280;32084;42.254;22.744;2023-12-20T01:26:07;95574.25;;;-0.68;100.00
46379;BME280;32084;42.254;22.744;2023-12-20T01:28:33;95570.78;;;-0.68;100.00
46379;BME280;32084;42.254;22.744;2023-12-20T01:30:59;95564.66;;;-0.69;100.00
46379;BME280;32084;42.254;22.744;2023-12-20T01:33:25;95561.13;;;-0.68;100.00
46379;BME280;32084;42.254;22.744;2023-12-20T01:35:51;95560.94;;;-0.81;100.00
46379;BME280;32084;42.254;22.744;2023-12-20T01:38:17;95557.47;;;-0.81;100.00
46379;BME280;32084;42.254;22.744;2023-12-20T01:40:44;95555.69;;;-0.81;100.00
46379;BME280;32084;42.254;22.744;2023-12-20T01:43:10;95555.69;;;-0.81;100.00
46379;BME280;32084;42.254;22.744;2023-12-20T01:45:38;95546.47;;;-0.72;100.00
46379;BME280;32084;42.254;22.744;2023-12-20T01:48:04;95544.59;;;-0.70;100.00
46379;BME280;32084;42.254;22.744;2023-12-20T01:50:31;95544.28;;;-0.97;100.00
46379;BME280;32084;42.254;22.744;2023-12-20T01:52:58;95543.44;;;-0.98;100.00
46379;BME280;32084;42.254;22.744;2023-12-20T01:55:30;95533.63;;;-1.27;100.00
46379;BME280;32084;42.254;22.744;2023-12-20T01:57:57;95521.16;;;-1.40;100.00
46379;BME280;32084;42.254;22.744;2023-12-20T02:00:23;95526.06;;;-1.16;100.00
46379;BME280;32084;42.254;22.744;2023-12-20T02:02:53;95516.00;;;-1.08;100.00
46379;BME280;32084;42.254;22.744;2023-12-20T02:05:19;95513.69;;;-1.14;100.00
46379;BME280;32084;42.254;22.744;2023-12-20T02:07:46;95516.03;;;-1.25;100.00
46379;BME280;32084;42.254;22.744;2023-12-20T02:10:12;95510.81;;;-1.43;100.00
46379;BME280;32084;42.254;22.744;2023-12-20T02:12:38;95517.34;;;-1.50;100.00
46379;BME280;32084;42.254;22.744;2023-12-20T02:15:04;95507.06;;;-1.54;100.00
46379;BME280;32084;42.254;22.744;2023-12-20T02:17:31;95502.59;;;-1.52;100.00
46379;BME280;32084;42.254;22.744;2023-12-20T02:19:57;95499.09;;;-1.69;100.00
46379;BME280;32084;42.254;22.744;2023-12-20T02:22:23;95497.50;;;-1.73;100.00
46379;BME280;32084;42.254;22.744;2023-12-20T02:24:49;95494.91;;;-1.73;100.00
46379;BME280;32084;42.254;22.744;2023-12-20T02:27:15;95484.97;;;-1.84;100.00
46379;BME280;32084;42.254;22.744;2023-12-20T02:29:43;95489.13;;;-1.80;100.00
46379;BME280;32084;42.254;22.744;2023-12-20T02:32:09;95490.41;;;-1.71;100.00
46379;BME280;32084;42.254;22.744;2023-12-20T02:34:35;95489.84;;;-1.43;100.00
46379;BME280;32084;42.254;22.744;2023-12-20T02:37:01;95490.78;;;-1.44;100.00
46379;BME280;32084;42.254;22.744;2023-12-20T02:39:27;95480.38;;;-1.45;100.00
46379;BME280;32084;42.254;22.744;2023-12-20T02:41:53;95475.97;;;-1.45;100.00
46379;BME280;32084;42.254;22.744;2023-12-20T02:44:19;95478.00;;;-1.50;100.00
46379;BME280;32084;42.254;22.744;2023-12-20T02:46:45;95466.59;;;-1.66;100.00
46379;BME280;32084;42.254;22.744;2023-12-20T02:49:11;95471.75;;;-1.82;100.00
46379;BME280;32084;42.254;22.744;2023-12-20T02:51:37;95467.22;;;-1.96;100.00
46379;BME280;32084;42.254;22.744;2023-12-20T02:54:06;95464.69;;;-1.98;100.00
46379;BME280;32084;42.254;22.744;2023-12-20T02:56:32;95467.31;;;-1.98;100.00
46379;BME280;32084;42.254;22.744;2023-12-20T02:58:58;95466.78;;;-2.04;100.00
46379;BME280;32084;42.254;22.744;2023-12-20T03:01:24;95468.00;;;-1.94;100.00
46379;BME280;32084;42.254;22.744;2023-12-20T03:03:50;95457.69;;;-1.97;100.00
46379;BME280;32084;42.254;22.744;2023-12-20T03:06:17;95450.81;;;-2.00;100.00
46379;BME280;32084;42.254;22.744;2023-12-20T03:08:43;95452.75;;;-2.03;100.00
46379;BME280;32084;42.254;22.744;2023-12-20T03:11:09;95455.84;;;-1.95;100.00
46379;BME280;32084;42.254;22.744;2023-12-20T03:13:35;95451.97;;;-1.88;100.00
46379;BME280;32084;42.254;22.744;2023-12-20T03:16:01;95447.31;;;-1.65;100.00
46379;BME280;32084;42.254;22.744;2023-12-20T03:18:27;95454.88;;;-1.77;100.00
46379;BME280;32084;42.254;22.744;2023-12-20T03:20:54;95454.88;;;-1.77;100.00
46379;BME280;32084;42.254;22.744;2023-12-20T03:23:20;95455.63;;;-1.57;100.00
46379;BME280;32084;42.254;22.744;2023-12-20T03:25:46;95449.69;;;-1.61;100.00
46379;BME280;32084;42.254;22.744;2023-12-20T03:28:14;95442.53;;;-1.57;100.00
46379;BME280;32084;42.254;22.744;2023-12-20T03:30:40;95446.34;;;-1.47;100.00
46379;BME280;32084;42.254;22.744;2023-12-20T03:33:06;95444.94;;;-1.36;100.00
46379;BME280;32084;42.254;22.744;2023-12-20T03:35:33;95446.41;;;-1.48;100.00
46379;BME280;32084;42.254;22.744;2023-12-20T03:37:59;95446.59;;;-1.51;100.00
46379;BME280;32084;42.254;22.744;2023-12-20T03:40:26;95442.41;;;-1.38;100.00
46379;BME280;32084;42.254;22.744;2023-12-20T03:42:52;95441.50;;;-1.21;100.00
46379;BME280;32084;42.254;22.744;2023-12-20T03:45:18;95448.00;;;-1.28;100.00
46379;BME280;32084;42.254;22.744;2023-12-20T03:47:44;95438.47;;;-1.47;100.00
46379;BME280;32084;42.254;22.744;2023-12-20T03:50:09;95442.03;;;-1.48;100.00
46379;BME280;32084;42.254;22.744;2023-12-20T03:52:35;95447.75;;;-1.24;100.00
46379;BME280;32084;42.254;22.744;2023-12-20T03:55:01;95442.25;;;-1.19;100.00
46379;BME280;32084;42.254;22.744;2023-12-20T03:57:27;95436.41;;;-1.08;100.00
46379;BME280;32084;42.254;22.744;2023-12-20T03:59:53;95433.38;;;-1.16;100.00
46379;BME280;32084;42.254;22.744;2023-12-20T04:02:19;95430.19;;;-1.39;100.00
46379;BME280;32084;42.254;22.744;2023-12-20T04:04:45;95429.09;;;-1.51;100.00
46379;BME280;32084;42.254;22.744;2023-12-20T04:07:11;95429.06;;;-1.67;100.00
46379;BME280;32084;42.254;22.744;2023-12-20T04:09:37;95422.44;;;-1.74;100.00
46379;BME280;32084;42.254;22.744;2023-12-20T04:12:03;95421.34;;;-1.70;100.00
46379;BME280;32084;42.254;22.744;2023-12-20T04:14:30;95423.13;;;-1.70;100.00
46379;BME280;32084;42.254;22.744;2023-12-20T04:16:56;95420.09;;;-1.63;100.00
46379;BME280;32084;42.254;22.744;2023-12-20T04:19:22;95417.34;;;-1.44;100.00
46379;BME280;32084;42.254;22.744;2023-12-20T04:21:48;95416.88;;;-1.52;100.00
46379;BME280;32084;42.254;22.744;2023-12-20T04:24:14;95410.38;;;-1.45;100.00
46379;BME280;32084;42.254;22.744;2023-12-20T04:26:40;95412.94;;;-1.43;100.00
46379;BME280;32084;42.254;22.744;2023-12-20T04:29:06;95413.97;;;-1.46;100.00
46379;BME280;32084;42.254;22.744;2023-12-20T04:31:32;95412.25;;;-1.47;100.00
46379;BME280;32084;42.254;22.744;2023-12-20T04:33:58;95406.44;;;-1.36;100.00
46379;BME280;32084;42.254;22.744;2023-12-20T04:36:24;95401.88;;;-1.32;100.00
46379;BME280;32084;42.254;22.744;2023-12-20T04:38:53;95397.13;;;-1.42;100.00
46379;BME280;32084;42.254;22.744;2023-12-20T04:41:19;95399.81;;;-1.43;100.00
46379;BME280;32084;42.254;22.744;2023-12-20T04:43:45;95392.69;;;-1.57;100.00
46379;BME280;32084;42.254;22.744;2023-12-20T04:46:11;95399.28;;;-1.66;100.00
46379;BME280;32084;42.254;22.744;2023-12-20T04:48:37;95392.66;;;-1.73;100.00
46379;BME280;32084;42.254;22.744;2023-12-20T04:51:03;95396.41;;;-1.61;100.00
46379;BME280;32084;42.254;22.744;2023-12-20T04:53:29;95385.13;;;-1.79;100.00
46379;BME280;32084;42.254;22.744;2023-12-20T04:55:55;95379.19;;;-1.83;100.00
46379;BME280;32084;42.254;22.744;2023-12-20T04:58:21;95379.81;;;-1.62;100.00
46379;BME280;32084;42.254;22.744;2023-12-20T05:00:47;95382.38;;;-1.60;100.00
46379;BME280;32084;42.254;22.744;2023-12-20T05:03:13;95386.09;;;-1.64;100.00
46379;BME280;32084;42.254;22.744;2023-12-20T05:05:39;95380.16;;;-1.52;100.00
46379;BME280;32084;42.254;22.744;2023-12-20T05:08:05;95378.41;;;-1.35;100.00
46379;BME280;32084;42.254;22.744;2023-12-20T05:10:31;95370.22;;;-1.13;100.00
46379;BME280;32084;42.254;22.744;2023-12-20T05:12:57;95369.88;;;-1.07;100.00
46379;BME280;32084;42.254;22.744;2023-12-20T05:15:23;95371.50;;;-1.21;100.00
46379;BME280;32084;42.254;22.744;2023-12-20T05:17:49;95371.06;;;-1.45;100.00
46379;BME280;32084;42.254;22.744;2023-12-20T05:20:14;95368.16;;;-1.56;100.00
46379;BME280;32084;42.254;22.744;2023-12-20T05:22:41;95367.31;;;-1.57;100.00
46379;BME280;32084;42.254;22.744;2023-12-20T05:25:07;95364.28;;;-1.49;100.00
46379;BME280;32084;42.254;22.744;2023-12-20T05:27:33;95359.03;;;-1.49;100.00
46379;BME280;32084;42.254;22.744;2023-12-20T05:29:59;95357.78;;;-1.42;100.00
46379;BME280;32084;42.254;22.744;2023-12-20T05:32:25;95355.31;;;-1.45;100.00
46379;BME280;32084;42.254;22.744;2023-12-20T05:34:51;95354.63;;;-1.48;100.00
46379;BME280;32084;42.254;22.744;2023-12-20T05:37:17;95347.25;;;-1.58;100.00
46379;BME280;32084;42.254;22.744;2023-12-20T05:39:43;95347.50;;;-1.62;100.00
46379;BME280;32084;42.254;22.744;2023-12-20T05:42:09;95347.09;;;-1.70;100.00
46379;BME280;32084;42.254;22.744;2023-12-20T05:44:35;95343.03;;;-1.60;100.00
46379;BME280;32084;42.254;22.744;2023-12-20T05:47:02;95347.38;;;-1.59;100.00
46379;BME280;32084;42.254;22.744;2023-12-20T05:49:28;95344.06;;;-1.63;100.00
46379;BME280;32084;42.254;22.744;2023-12-20T05:51:54;95340.91;;;-1.69;100.00
46379;BME280;32084;42.254;22.744;2023-12-20T05:54:20;95339.22;;;-1.70;100.00
46379;BME280;32084;42.254;22.744;2023-12-20T05:56:47;95339.78;;;-1.81;100.00
46379;BME280;32084;42.254;22.744;2023-12-20T05:59:13;95337.94;;;-1.63;100.00
46379;BME280;32084;42.254;22.744;2023-12-20T06:01:39;95340.56;;;-1.79;100.00
46379;BME280;32084;42.254;22.744;2023-12-20T06:04:05;95342.16;;;-1.77;100.00
46379;BME280;32084;42.254;22.744;2023-12-20T06:06:31;95336.19;;;-1.63;100.00
46379;BME280;32084;42.254;22.744;2023-12-20T06:08:57;95334.81;;;-1.54;100.00
46379;BME280;32084;42.254;22.744;2023-12-20T06:11:23;95335.84;;;-1.57;100.00
46379;BME280;32084;42.254;22.744;2023-12-20T06:13:49;95326.19;;;-1.56;100.00
46379;BME280;32084;42.254;22.744;2023-12-20T06:16:18;95336.47;;;-1.51;100.00
46379;BME280;32084;42.254;22.744;2023-12-20T06:18:44;95334.00;;;-1.54;100.00
46379;BME280;32084;42.254;22.744;2023-12-20T06:21:10;95337.28;;;-1.51;100.00
46379;BME280;32084;42.254;22.744;2023-12-20T06:23:38;95330.25;;;-1.50;100.00
46379;BME280;32084;42.254;22.744;2023-12-20T06:26:05;95329.69;;;-1.40;100.00
46379;BME280;32084;42.254;22.744;2023-12-20T06:28:32;95339.41;;;-1.26;100.00
46379;BME280;32084;42.254;22.744;2023-12-20T06:30:58;95338.22;;;-1.20;100.00
46379;BME280;32084;42.254;22.744;2023-12-20T06:33:24;95336.03;;;-1.28;100.00
46379;BME280;32084;42.254;22.744;2023-12-20T06:35:50;95329.41;;;-1.35;100.00
46379;BME280;32084;42.254;22.744;2023-12-20T06:38:17;95335.28;;;-1.46;100.00
46379;BME280;32084;42.254;22.744;2023-12-20T06:40:43;95324.00;;;-1.32;100.00
46379;BME280;32084;42.254;22.744;2023-12-20T06:43:09;95320.09;;;-1.41;100.00
46379;BME280;32084;42.254;22.744;2023-12-20T06:45:35;95319.44;;;-1.44;100.00
46379;BME280;32084;42.254;22.744;2023-12-20T06:48:01;95337.97;;;-1.31;100.00
46379;BME280;32084;42.254;22.744;2023-12-20T06:50:27;95329.91;;;-1.12;100.00
46379;BME280;32084;42.254;22.744;2023-12-20T06:52:54;95330.09;;;-1.00;100.00
46379;BME280;32084;42.254;22.744;2023-12-20T06:55:20;95325.91;;;-0.88;99.99
46379;BME280;32084;42.254;22.744;2023-12-20T06:57:46;95326.97;;;-0.76;100.00
46379;BME280;32084;42.254;22.744;2023-12-20T07:00:12;95323.00;;;-0.67;98.48
46379;BME280;32084;42.254;22.744;2023-12-20T07:02:38;95322.84;;;-0.50;96.88
46379;BME280;32084;42.254;22.744;2023-12-20T07:05:04;95319.09;;;-0.60;97.08
46379;BME280;32084;42.254;22.744;2023-12-20T07:07:30;95315.56;;;-0.75;97.88
46379;BME280;32084;42.254;22.744;2023-12-20T07:09:56;95322.84;;;-0.80;98.50
46379;BME280;32084;42.254;22.744;2023-12-20T07:12:22;95321.63;;;-0.89;99.33
46379;BME280;32084;42.254;22.744;2023-12-20T07:14:48;95319.75;;;-0.87;98.25
46379;BME280;32084;42.254;22.744;2023-12-20T07:17:14;95317.81;;;-0.69;99.28
46379;BME280;32084;42.254;22.744;2023-12-20T07:19:41;95309.25;;;-0.56;98.36
46379;BME280;32084;42.254;22.744;2023-12-20T07:22:07;95309.25;;;-0.42;96.73
46379;BME280;32084;42.254;22.744;2023-12-20T07:24:34;95301.78;;;-0.34;96.09
46379;BME280;32084;42.254;22.744;2023-12-20T07:27:00;95294.41;;;-0.57;96.33
46379;BME280;32084;42.254;22.744;2023-12-20T07:29:26;95297.72;;;-0.84;98.10
46379;BME280;32084;42.254;22.744;2023-12-20T07:31:52;95286.13;;;-0.96;99.02
46379;BME280;32084;42.254;22.744;2023-12-20T07:34:20;95287.25;;;-1.00;100.00
46379;BME280;32084;42.254;22.744;2023-12-20T07:36:46;95281.00;;;-1.13;99.43
46379;BME280;32084;42.254;22.744;2023-12-20T07:39:14;95292.78;;;-1.21;100.00
46379;BME280;32084;42.254;22.744;2023-12-20T07:41:40;95281.00;;;-1.29;100.00
46379;BME280;32084;42.254;22.744;2023-12-20T07:44:06;95278.31;;;-1.12;100.00
46379;BME280;32084;42.254;22.744;2023-12-20T07:46:32;95284.47;;;-1.13;100.00
46379;BME280;32084;42.254;22.744;2023-12-20T07:48:59;95288.94;;;-0.99;100.00
46379;BME280;32084;42.254;22.744;2023-12-20T07:51:25;95278.84;;;-0.91;100.00
46379;BME280;32084;42.254;22.744;2023-12-20T07:53:51;95276.31;;;-0.92;100.00
46379;BME280;32084;42.254;22.744;2023-12-20T07:56:18;95276.09;;;-0.73;100.00
46379;BME280;32084;42.254;22.744;2023-12-20T07:58:45;95280.38;;;-0.72;99.58
46379;BME280;32084;42.254;22.744;2023-12-20T08:01:11;95276.19;;;-0.75;99.66
46379;BME280;32084;42.254;22.744;2023-12-20T08:03:38;95269.59;;;-0.82;99.00
46379;BME280;32084;42.254;22.744;2023-12-20T08:06:04;95271.91;;;-0.92;99.96
46379;BME280;32084;42.254;22.744;2023-12-20T08:08:30;95274.16;;;-0.86;100.00
46379;BME280;32084;42.254;22.744;2023-12-20T08:10:56;95261.84;;;-0.69;100.00
46379;BME280;32084;42.254;22.744;2023-12-20T08:13:25;95263.25;;;-0.64;98.52
46379;BME280;32084;42.254;22.744;2023-12-20T08:15:55;95266.47;;;-0.58;100.00
46379;BME280;32084;42.254;22.744;2023-12-20T08:18:21;95255.22;;;-0.46;100.00
46379;BME280;32084;42.254;22.744;2023-12-20T08:20:48;95255.22;;;-0.46;99.63
46379;BME280;32084;42.254;22.744;2023-12-20T08:23:14;95251.22;;;-0.37;99.00
46379;BME280;32084;42.254;22.744;2023-12-20T08:25:40;95249.78;;;-0.43;99.71
46379;BME280;32084;42.254;22.744;2023-12-20T08:28:07;95251.13;;;-0.36;99.58
46379;BME280;32084;42.254;22.744;2023-12-20T08:30:32;95252.44;;;-0.14;97.60
46379;BME280;32084;42.254;22.744;2023-12-20T08:33:02;95245.75;;;-0.34;97.32
46379;BME280;32084;42.254;22.744;2023-12-20T08:35:28;95246.72;;;-0.35;98.25
46379;BME280;32084;42.254;22.744;2023-12-20T08:37:54;95246.50;;;-0.32;98.90
46379;BME280;32084;42.254;22.744;2023-12-20T08:40:20;95236.84;;;-0.32;99.02
46379;BME280;32084;42.254;22.744;2023-12-20T08:42:46;95233.00;;;-0.26;98.63
46379;BME280;32084;42.254;22.744;2023-12-20T08:45:12;95222.75;;;-0.02;98.22
46379;BME280;32084;42.254;22.744;2023-12-20T08:47:38;95224.19;;;-0.11;96.60
46379;BME280;32084;42.254;22.744;2023-12-20T08:50:06;95219.38;;;-0.04;97.92
46379;BME280;32084;42.254;22.744;2023-12-20T08:52:32;95214.03;;;-0.03;98.00
46379;BME280;32084;42.254;22.744;2023-12-20T08:54:59;95211.13;;;0.02;98.12
46379;BME280;32084;42.254;22.744;2023-12-20T08:57:25;95202.50;;;0.00;98.17
46379;BME280;32084;42.254;22.744;2023-12-20T08:59:51;95198.69;;;0.18;98.24
46379;BME280;32084;42.254;22.744;2023-12-20T09:02:17;95197.22;;;0.14;97.66
46379;BME280;32084;42.254;22.744;2023-12-20T09:04:43;95188.91;;;0.21;97.43
46379;BME280;32084;42.254;22.744;2023-12-20T09:07:24;95187.91;;;0.23;97.01
46379;BME280;32084;42.254;22.744;2023-12-20T09:09:51;95188.19;;;0.18;98.81
46379;BME280;32084;42.254;22.744;2023-12-20T09:14:52;95174.88;;;0.07;98.43
46379;BME280;32084;42.254;22.744;2023-12-20T09:17:18;95171.13;;;-0.03;98.07
46379;BME280;32084;42.254;22.744;2023-12-20T09:19:45;95163.34;;;0.10;98.72
46379;BME280;32084;42.254;22.744;2023-12-20T09:22:11;95158.50;;;0.16;98.66
46379;BME280;32084;42.254;22.744;2023-12-20T09:24:37;95154.00;;;0.18;99.09
46379;BME280;32084;42.254;22.744;2023-12-20T09:27:07;95144.13;;;0.22;99.70
46379;BME280;32084;42.254;22.744;2023-12-20T09:29:33;95134.16;;;0.27;98.95
46379;BME280;32084;42.254;22.744;2023-12-20T09:31:59;95129.34;;;0.34;98.72
46379;BME280;32084;42.254;22.744;2023-12-20T09:34:25;95131.69;;;0.38;100.00
46379;BME280;32084;42.254;22.744;2023-12-20T09:36:54;95132.25;;;0.56;97.58
46379;BME280;32084;42.254;22.744;2023-12-20T09:39:20;95130.44;;;0.44;98.17
46379;BME280;32084;42.254;22.744;2023-12-20T09:42:07;95116.13;;;0.48;98.03
46379;BME280;32084;42.254;22.744;2023-12-20T09:44:33;95125.59;;;0.51;97.67
46379;BME280;32084;42.254;22.744;2023-12-20T09:47:01;95117.94;;;0.48;97.25
46379;BME280;32084;42.254;22.744;2023-12-20T09:49:28;95113.56;;;0.61;99.20
46379;BME280;32084;42.254;22.744;2023-12-20T09:51:54;95101.28;;;0.47;98.98
46379;BME280;32084;42.254;22.744;2023-12-20T09:54:20;95094.94;;;0.77;98.70
46379;BME280;32084;42.254;22.744;2023-12-20T09:56:47;95095.94;;;0.49;97.77
46379;BME280;32084;42.254;22.744;2023-12-20T09:59:14;95087.28;;;0.47;99.72
46379;BME280;32084;42.254;22.744;2023-12-20T10:01:40;95083.75;;;0.61;100.00
46379;BME280;32084;42.254;22.744;2023-12-20T10:04:07;95077.59;;;0.47;100.00
46379;BME280;32084;42.254;22.744;2023-12-20T10:06:39;95067.03;;;0.74;100.00
46379;BME280;32084;42.254;22.744;2023-12-20T10:09:05;95060.53;;;0.80;99.73
46379;BME280;32084;42.254;22.744;2023-12-20T10:11:31;95055.34;;;0.78;99.54
46379;BME280;32084;42.254;22.744;2023-12-20T10:14:00;95043.25;;;1.02;98.87
46379;BME280;32084;42.254;22.744;2023-12-20T10:16:27;95044.91;;;1.15;98.41
46379;BME280;32084;42.254;22.744;2023-12-20T10:18:53;95037.88;;;1.16;97.47
46379;BME280;32084;42.254;22.744;2023-12-20T10:21:20;95032.28;;;1.08;98.38
46379;BME280;32084;42.254;22.744;2023-12-20T10:23:46;95035.34;;;1.14;99.23
46379;BME280;32084;42.254;22.744;2023-12-20T10:26:21;95028.38;;;1.26;98.20
46379;BME280;32084;42.254;22.744;2023-12-20T10:28:51;95024.94;;;1.50;97.03
46379;BME280;32084;42.254;22.744;2023-12-20T10:31:34;95022.47;;;1.35;97.71
46379;BME280;32084;42.254;22.744;2023-12-20T10:34:01;95013.75;;;1.09;98.23
46379;BME280;32084;42.254;22.744;2023-12-20T10:36:31;95006.06;;;1.06;99.26
46379;BME280;32084;42.254;22.744;2023-12-20T10:42:20;94998.69;;;1.24;97.67
46379;BME280;32084;42.254;22.744;2023-12-20T10:44:47;94990.88;;;1.23;98.62
46379;BME280;32084;42.254;22.744;2023-12-20T10:47:13;94986.75;;;1.31;99.01
46379;BME280;32084;42.254;22.744;2023-12-20T10:49:39;94975.56;;;1.41;99.44
46379;BME280;32084;42.254;22.744;2023-12-20T10:52:06;94973.25;;;1.36;97.85
46379;BME280;32084;42.254;22.744;2023-12-20T10:54:33;94966.19;;;1.36;99.36
46379;BME280;32084;42.254;22.744;2023-12-20T10:56:59;94960.38;;;1.44;99.50
46379;BME280;32084;42.254;22.744;2023-12-20T10:59:25;94958.03;;;1.52;98.69
46379;BME280;32084;42.254;22.744;2023-12-20T11:01:53;94955.56;;;1.62;98.44
46379;BME280;32084;42.254;22.744;2023-12-20T11:04:23;94953.66;;;1.64;99.20
46379;BME280;32084;42.254;22.744;2023-12-20T11:06:56;94949.16;;;1.78;98.48
46379;BME280;32084;42.254;22.744;2023-12-20T11:09:26;94946.81;;;1.86;97.47
46379;BME280;32084;42.254;22.744;2023-12-20T11:12:13;94935.47;;;1.97;96.62
46379;BME280;32084;42.254;22.744;2023-12-20T11:14:46;94939.03;;;1.84;97.98
46379;BME280;32084;42.254;22.744;2023-12-20T11:17:13;94930.03;;;1.87;97.20
46379;BME280;32084;42.254;22.744;2023-12-20T11:22:15;94923.59;;;1.91;98.36
46379;BME280;32084;42.254;22.744;2023-12-20T11:24:44;94919.66;;;1.72;97.23
46379;BME280;32084;42.254;22.744;2023-12-20T11:27:10;94925.34;;;1.79;99.11
46379;BME280;32084;42.254;22.744;2023-12-20T11:29:36;94907.66;;;1.68;100.00
46379;BME280;32084;42.254;22.744;2023-12-20T11:32:02;94893.41;;;1.60;100.00
46379;BME280;32084;42.254;22.744;2023-12-20T11:34:31;94899.91;;;1.78;98.67
46379;BME280;32084;42.254;22.744;2023-12-20T11:36:58;94886.81;;;2.01;98.95
46379;BME280;32084;42.254;22.744;2023-12-20T11:39:25;94876.97;;;1.91;97.90
46379;BME280;32084;42.254;22.744;2023-12-20T11:41:51;94878.41;;;1.84;98.27
46379;BME280;32084;42.254;22.744;2023-12-20T11:44:17;94875.16;;;1.81;99.99
46379;BME280;32084;42.254;22.744;2023-12-20T11:47:50;94866.78;;;1.63;100.00
46379;BME280;32084;42.254;22.744;2023-12-20T11:50:19;94863.84;;;1.67;100.00
46379;BME280;32084;42.254;22.744;2023-12-20T11:52:46;94857.34;;;1.95;100.00
46379;BME280;32084;42.254;22.744;2023-12-20T11:55:12;94857.41;;;1.83;99.65
46379;BME280;32084;42.254;22.744;2023-12-20T11:57:38;94855.88;;;1.91;99.52
46379;BME280;32084;42.254;22.744;2023-12-20T12:00:05;94848.59;;;2.06;99.88
46379;BME280;32084;42.254;22.744;2023-12-20T12:02:31;94848.25;;;2.11;98.96
46379;BME280;32084;42.254;22.744;2023-12-20T12:04:59;94834.94;;;2.24;98.19
46379;BME280;32084;42.254;22.744;2023-12-20T12:07:25;94830.41;;;2.26;97.66
46379;BME280;32084;42.254;22.744;2023-12-20T12:09:51;94834.47;;;2.19;99.39
46379;BME280;32084;42.254;22.744;2023-12-20T12:12:17;94838.06;;;2.29;98.73
46379;BME280;32084;42.254;22.744;2023-12-20T12:14:45;94827.28;;;2.21;99.11
46379;BME280;32084;42.254;22.744;2023-12-20T12:17:11;94823.22;;;2.28;98.10
46379;BME280;32084;42.254;22.744;2023-12-20T12:19:39;94821.53;;;2.38;97.87
46379;BME280;32084;42.254;22.744;2023-12-20T12:22:05;94806.78;;;2.24;99.26
46379;BME280;32084;42.254;22.744;2023-12-20T12:24:39;94803.41;;;2.00;100.00
46379;BME280;32084;42.254;22.744;2023-12-20T12:27:05;94807.09;;;1.97;100.00
46379;BME280;32084;42.254;22.744;2023-12-20T12:29:32;94799.47;;;2.05;100.00
46379;BME280;32084;42.254;22.744;2023-12-20T12:31:58;94793.91;;;1.97;100.00
46379;BME280;32084;42.254;22.744;2023-12-20T12:34:24;94789.00;;;1.81;100.00
46379;BME280;32084;42.254;22.744;2023-12-20T12:36:50;94788.50;;;1.87;100.00
46379;BME280;32084;42.254;22.744;2023-12-20T12:39:17;94789.59;;;1.85;100.00
46379;BME280;32084;42.254;22.744;2023-12-20T12:41:43;94785.25;;;1.84;100.00
46379;BME280;32084;42.254;22.744;2023-12-20T12:44:09;94778.81;;;1.99;100.00
46379;BME280;32084;42.254;22.744;2023-12-20T12:46:35;94771.25;;;1.83;100.00
46379;BME280;32084;42.254;22.744;2023-12-20T12:49:01;94773.03;;;1.71;100.00
46379;BME280;32084;42.254;22.744;2023-12-20T12:51:27;94782.16;;;1.79;100.00